Time;durP1;ratioP1;P1;durP2;ratioP2;P2;SDS_P1;SDS_P2;PMS_P1;PMS_P2;Temp;Humidity;BMP_temperature;BMP_pressure;BME280_temperature;BME280_humidity;BME280_pressure;Samples;Min_cycle;Max_cycle;Signal;HPM_P1;HPM_P2
2021/03/26 00:01:25;;;;;;;10.15;5.85;;;7.20;72.10;;;;;;5111516;28;20343;-68
2021/03/26 00:03:54;;;;;;;14.07;6.30;;;7.20;72.10;;;;;;5111948;28;20131;-68
2021/03/26 00:06:26;;;;;;;9.97;5.67;;;7.10;72.00;;;;;;5112189;28;20317;-68
2021/03/26 00:08:53;;;;;;;12.93;5.97;;;7.10;72.10;;;;;;5111247;28;20773;-68
2021/03/26 00:11:20;;;;;;;9.90;6.23;;;7.10;72.10;;;;;;5112526;28;20366;-68
2021/03/26 00:13:46;;;;;;;13.30;5.50;;;7.10;72.10;;;;;;5111602;28;20862;-69
2021/03/26 00:16:11;;;;;;;9.73;5.90;;;7.10;72.10;;;;;;5111735;28;20293;-68
2021/03/26 00:18:38;;;;;;;9.43;5.87;;;7.10;72.20;;;;;;5112057;28;20043;-68
2021/03/26 00:21:06;;;;;;;11.70;5.87;;;7.10;72.10;;;;;;5111215;28;20079;-68
2021/03/26 00:23:32;;;;;;;10.67;5.67;;;7.10;72.30;;;;;;5112025;28;20293;-68
2021/03/26 00:25:58;;;;;;;11.20;5.73;;;7.10;72.30;;;;;;5111975;28;20333;-68
2021/03/26 00:28:24;;;;;;;9.70;5.47;;;7.10;72.40;;;;;;5111536;28;20349;-68
2021/03/26 00:30:50;;;;;;;10.40;5.93;;;7.10;72.50;;;;;;5111533;28;20837;-68
2021/03/26 00:33:16;;;;;;;9.93;5.40;;;7.10;72.40;;;;;;5111953;28;20052;-68
2021/03/26 00:35:42;;;;;;;14.77;6.97;;;7.10;72.50;;;;;;5111263;28;20048;-68
2021/03/26 00:38:08;;;;;;;14.50;6.50;;;7.10;72.40;;;;;;5111932;28;20322;-68
2021/03/26 00:40:34;;;;;;;9.10;6.13;;;7.10;72.50;;;;;;5111368;28;20048;-69
2021/03/26 00:43:00;;;;;;;12.77;6.33;;;7.20;72.50;;;;;;5111362;28;20051;-69
2021/03/26 00:45:33;;;;;;;9.03;6.03;;;7.20;72.40;;;;;;5112139;28;20326;-68
2021/03/26 00:47:59;;;;;;;13.20;6.50;;;7.30;72.40;;;;;;5111420;28;20047;-68
2021/03/26 00:50:29;;;;;;;13.37;6.33;;;7.40;72.20;;;;;;5111706;28;20302;-68
2021/03/26 00:52:56;;;;;;;10.97;5.67;;;7.40;72.10;;;;;;5111411;28;20305;-68
2021/03/26 00:55:22;;;;;;;8.40;5.37;;;7.50;71.90;;;;;;5111666;28;20761;-68
2021/03/26 00:57:48;;;;;;;13.37;5.83;;;7.50;71.90;;;;;;5110770;28;20294;-68
2021/03/26 01:00:19;;;;;;;10.47;5.47;;;7.50;71.90;;;;;;5111743;28;20056;-68
2021/03/26 01:02:45;;;;;;;9.97;6.43;;;7.50;72.00;;;;;;5111190;28;20297;-68
2021/03/26 01:05:17;;;;;;;13.23;6.70;;;7.60;72.20;;;;;;5111371;28;20362;-68
2021/03/26 01:07:45;;;;;;;11.93;5.18;;;7.60;72.00;;;;;;5111571;28;20079;-68
2021/03/26 01:10:12;;;;;;;12.47;6.70;;;7.60;72.00;;;;;;5111695;28;20056;-69
2021/03/26 01:12:38;;;;;;;10.80;6.33;;;7.60;72.10;;;;;;5111382;28;20374;-68
2021/03/26 01:15:10;;;;;;;13.53;7.03;;;7.60;72.00;;;;;;5111361;28;20285;-68
2021/03/26 01:17:35;;;;;;;14.07;6.53;;;7.70;72.00;;;;;;5110859;28;20293;-68
2021/03/26 01:20:05;;;;;;;8.90;5.47;;;7.70;72.00;;;;;;5110813;28;20047;-68
2021/03/26 01:22:30;;;;;;;11.47;5.93;;;7.70;72.10;;;;;;5111368;28;20426;-68
2021/03/26 01:24:56;;;;;;;10.30;5.50;;;7.70;72.00;;;;;;5110684;28;20345;-68
2021/03/26 01:27:21;;;;;;;9.57;5.43;;;7.70;72.00;;;;;;5111763;28;20073;-68
2021/03/26 01:29:47;;;;;;;11.07;5.13;;;7.80;72.10;;;;;;5110646;28;20388;-68
2021/03/26 01:32:13;;;;;;;9.73;5.43;;;7.80;72.40;;;;;;5111157;28;20440;-68
2021/03/26 01:34:40;;;;;;;11.53;5.80;;;7.80;72.40;;;;;;5111483;28;20296;-68
2021/03/26 01:37:06;;;;;;;11.10;5.67;;;7.80;72.50;;;;;;5111101;28;20388;-68
2021/03/26 01:39:31;;;;;;;12.13;5.50;;;7.80;72.50;;;;;;5113473;28;20334;-68
2021/03/26 01:41:57;;;;;;;8.47;5.30;;;7.70;72.60;;;;;;5114809;28;20059;-68
2021/03/26 01:44:26;;;;;;;11.10;5.40;;;7.70;72.80;;;;;;5114918;28;20052;-68
2021/03/26 01:46:52;;;;;;;11.47;6.13;;;7.70;72.80;;;;;;5114174;28;20098;-68
2021/03/26 01:49:18;;;;;;;11.30;6.30;;;7.70;72.80;;;;;;5115153;28;20854;-68
2021/03/26 01:51:46;;;;;;;8.13;5.20;;;7.70;72.90;;;;;;5114662;28;20341;-69
2021/03/26 01:54:15;;;;;;;12.10;5.50;;;7.70;72.90;;;;;;5114966;28;20113;-68
2021/03/26 01:56:42;;;;;;;16.00;6.30;;;7.70;72.80;;;;;;5114461;28;20707;-68
2021/03/26 01:59:08;;;;;;;8.90;5.20;;;7.70;73.00;;;;;;5114572;28;20297;-68
2021/03/26 02:01:48;;;;;;;11.10;5.60;;;7.70;72.90;;;;;;5114196;28;20289;-68
2021/03/26 02:04:28;;;;;;;9.83;5.47;;;7.70;73.00;;;;;;5114826;28;20612;-68
2021/03/26 02:06:55;;;;;;;12.63;5.97;;;7.70;72.90;;;;;;5113711;28;20293;-68
2021/03/26 02:09:27;;;;;;;7.53;5.37;;;7.70;72.80;;;;;;5114664;28;20301;-68
2021/03/26 02:12:01;;;;;;;8.73;5.20;;;7.70;72.70;;;;;;5114004;28;20301;-68
2021/03/26 02:14:35;;;;;;;10.37;5.50;;;7.70;72.70;;;;;;5114308;28;20047;-68
2021/03/26 02:17:07;;;;;;;11.83;5.73;;;7.70;72.60;;;;;;5114303;28;20289;-68
2021/03/26 02:19:50;;;;;;;11.33;5.10;;;7.80;72.70;;;;;;5113964;28;20372;-68
2021/03/26 02:22:17;;;;;;;8.80;4.87;;;7.80;72.80;;;;;;5114182;28;20305;-68
2021/03/26 02:24:45;;;;;;;10.40;5.20;;;7.80;72.80;;;;;;5114320;28;20285;-68
2021/03/26 02:27:19;;;;;;;9.13;4.70;;;7.80;72.60;;;;;;5114381;28;20339;-68
2021/03/26 02:29:46;;;;;;;7.40;4.63;;;7.80;73.60;;;;;;5113287;28;20351;-68
2021/03/26 02:32:26;;;;;;;11.07;5.53;;;7.80;72.60;;;;;;5114123;28;20309;-68
2021/03/26 02:35:16;;;;;;;9.60;5.20;;;7.90;72.70;;;;;;5113073;28;20297;-68
2021/03/26 02:37:57;;;;;;;11.73;5.37;;;7.90;72.60;;;;;;5113768;28;20762;-68
2021/03/26 02:40:32;;;;;;;11.40;5.70;;;7.90;72.60;;;;;;5113905;28;20289;-68
2021/03/26 02:43:16;;;;;;;9.27;5.07;;;7.80;72.60;;;;;;5113377;28;20733;-68
2021/03/26 02:45:49;;;;;;;10.43;6.00;;;7.90;72.80;;;;;;5113848;28;20368;-68
2021/03/26 02:48:25;;;;;;;9.23;5.50;;;7.90;72.70;;;;;;5113936;28;20654;-68
2021/03/26 02:51:26;;;;;;;11.13;5.77;;;7.90;72.60;;;;;;5112563;28;20302;-68
2021/03/26 02:54:13;;;;;;;9.60;5.63;;;7.90;72.60;;;;;;5113185;28;20305;-68
2021/03/26 02:56:46;;;;;;;8.87;5.50;;;7.90;72.60;;;;;;5113070;28;20347;-68
2021/03/26 02:59:18;;;;;;;11.07;5.70;;;7.90;72.70;;;;;;5113786;28;20342;-68
2021/03/26 03:01:49;;;;;;;11.13;5.93;;;7.90;72.80;;;;;;5113331;28;20335;-69
2021/03/26 03:04:25;;;;;;;12.83;6.20;;;7.90;72.80;;;;;;5113304;28;20350;-68
2021/03/26 03:06:58;;;;;;;10.77;5.83;;;7.90;72.90;;;;;;5113076;28;20301;-68
2021/03/26 03:09:26;;;;;;;10.90;7.13;;;7.90;73.00;;;;;;5113334;28;20308;-68
2021/03/26 03:12:06;;;;;;;14.10;6.50;;;7.90;73.00;;;;;;5112197;28;20309;-68
2021/03/26 03:14:39;;;;;;;11.47;7.23;;;7.80;73.40;;;;;;5113307;28;20354;-68
2021/03/26 03:17:15;;;;;;;14.17;7.87;;;7.80;73.30;;;;;;5112776;28;20298;-68
2021/03/26 03:19:51;;;;;;;10.57;7.53;;;7.80;73.40;;;;;;5113133;28;20358;-68
2021/03/26 03:22:27;;;;;;;12.10;8.50;;;7.70;73.60;;;;;;5113040;28;20449;-68
2021/03/26 03:24:58;;;;;;;17.40;8.50;;;7.80;73.90;;;;;;5112300;28;20487;-68
2021/03/26 03:27:49;;;;;;;13.00;8.17;;;7.70;73.80;;;;;;5113130;28;20309;-68
2021/03/26 03:30:27;;;;;;;15.93;10.00;;;7.70;74.30;;;;;;5112825;28;20293;-68
2021/03/26 03:33:02;;;;;;;15.70;9.67;;;7.70;74.20;;;;;;5112029;28;20321;-68
2021/03/26 03:35:53;;;;;;;18.10;9.37;;;7.70;74.30;;;;;;5112835;28;20649;-68
2021/03/26 03:38:25;;;;;;;14.10;10.77;;;7.70;74.70;;;;;;5112350;28;20347;-68
2021/03/26 03:41:00;;;;;;;19.08;11.18;;;7.70;74.60;;;;;;5112116;28;20392;-68
2021/03/26 03:43:56;;;;;;;18.50;11.83;;;7.70;74.70;;;;;;5112621;28;20055;-68
2021/03/26 03:46:26;;;;;;;16.73;13.07;;;7.60;74.90;;;;;;5112182;28;20793;-68
2021/03/26 03:49:09;;;;;;;18.00;11.70;;;7.60;75.00;;;;;;5111992;28;20325;-68
2021/03/26 03:51:51;;;;;;;17.43;12.80;;;7.60;75.40;;;;;;5112013;28;20312;-69
2021/03/26 03:54:27;;;;;;;19.97;13.83;;;7.60;75.30;;;;;;5112121;28;20305;-68
2021/03/26 03:57:01;;;;;;;19.50;13.83;;;7.70;75.30;;;;;;5111678;28;20299;-68
2021/03/26 03:59:40;;;;;;;18.07;13.73;;;7.70;75.40;;;;;;5111937;28;20662;-68
2021/03/26 04:02:19;;;;;;;19.73;14.63;;;7.70;75.50;;;;;;5111820;28;20306;-68
2021/03/26 04:05:02;;;;;;;22.20;14.73;;;7.70;75.70;;;;;;5111870;28;20293;-68
2021/03/26 04:07:33;;;;;;;20.87;16.17;;;7.70;75.60;;;;;;5111827;28;20304;-68
2021/03/26 04:10:07;;;;;;;21.60;14.65;;;7.60;75.70;;;;;;5111853;28;20304;-68
2021/03/26 04:12:37;;;;;;;21.17;15.87;;;7.60;75.80;;;;;;5111804;28;20100;-68
2021/03/26 04:15:10;;;;;;;20.87;13.67;;;7.60;76.10;;;;;;5111644;28;20304;-68
2021/03/26 04:17:45;;;;;;;22.70;15.37;;;7.70;76.30;;;;;;5111872;28;20301;-68
2021/03/26 04:20:32;;;;;;;19.57;16.43;;;7.70;76.30;;;;;;5111465;28;20372;-68
2021/03/26 04:23:03;;;;;;;24.43;16.20;;;7.80;76.40;;;;;;5112034;28;20289;-69
2021/03/26 04:25:33;;;;;;;22.38;17.77;;;7.80;76.30;;;;;;5112123;28;20369;-70
2021/03/26 04:28:23;;;;;;;26.73;17.17;;;7.80;76.10;;;;;;5111377;28;20055;-68
2021/03/26 04:30:55;;;;;;;25.27;17.93;;;7.80;76.50;;;;;;5111299;28;20289;-68
2021/03/26 04:33:21;;;;;;;27.15;16.98;;;7.80;76.50;;;;;;5112002;28;20296;-68
2021/03/26 04:35:49;;;;;;;25.03;17.53;;;7.90;76.50;;;;;;5110835;28;20050;-68
2021/03/26 04:38:30;;;;;;;27.73;18.77;;;7.90;76.50;;;;;;5112091;28;20682;-68
2021/03/26 04:41:04;;;;;;;29.17;19.20;;;7.90;76.70;;;;;;5111110;28;20309;-68
2021/03/26 04:43:39;;;;;;;25.50;19.17;;;7.90;76.70;;;;;;5111413;28;20052;-68
2021/03/26 04:46:16;;;;;;;25.40;19.57;;;7.90;76.70;;;;;;5111499;28;20297;-68
2021/03/26 04:49:07;;;;;;;27.23;19.93;;;7.90;76.80;;;;;;5111089;28;20327;-68
2021/03/26 04:51:46;;;;;;;27.67;21.37;;;8.00;77.10;;;;;;5111457;28;20407;-68
2021/03/26 04:54:30;;;;;;;27.60;20.13;;;8.00;77.10;;;;;;5111803;28;20289;-69
2021/03/26 04:57:10;;;;;;;27.93;20.40;;;8.00;77.30;;;;;;5110771;28;20301;-68
2021/03/26 04:59:48;;;;;;;26.33;20.67;;;8.00;77.30;;;;;;5111416;28;20805;-68
2021/03/26 05:02:16;;;;;;;28.60;21.10;;;8.00;77.30;;;;;;5111456;28;20305;-68
2021/03/26 05:04:44;;;;;;;27.87;21.30;;;8.00;77.40;;;;;;5111236;28;20282;-68
2021/03/26 05:07:14;;;;;;;29.60;21.57;;;8.00;77.50;;;;;;5111309;28;20358;-69
2021/03/26 05:09:44;;;;;;;27.53;21.50;;;8.00;77.60;;;;;;5110927;28;20299;-68
2021/03/26 05:12:34;;;;;;;29.13;20.60;;;8.10;77.70;;;;;;5111391;28;20701;-68
2021/03/26 05:15:06;;;;;;;27.60;21.47;;;8.10;78.00;;;;;;5114842;28;20391;-68
2021/03/26 05:17:47;;;;;;;28.80;20.83;;;8.10;77.80;;;;;;5114729;28;20659;-68
2021/03/26 05:20:33;;;;;;;29.17;20.67;;;8.10;77.80;;;;;;5115349;28;20304;-69
2021/03/26 05:22:59;;;;;;;25.50;21.00;;;8.10;77.80;;;;;;5114895;28;20753;-68
2021/03/26 05:25:41;;;;;;;29.50;21.53;;;8.10;78.00;;;;;;5114785;28;20298;-68
2021/03/26 05:28:11;;;;;;;29.33;21.83;;;8.10;78.10;;;;;;5114929;28;20055;-68
2021/03/26 05:30:40;;;;;;;27.37;21.47;;;8.10;78.00;;;;;;5114389;28;20452;-68
2021/03/26 05:33:13;;;;;;;30.40;22.60;;;8.10;78.00;;;;;;5114664;28;20744;-68
2021/03/26 05:35:50;;;;;;;26.23;21.10;;;8.10;78.10;;;;;;5114673;28;20300;-68
2021/03/26 05:38:22;;;;;;;27.80;21.17;;;8.10;78.30;;;;;;5114939;28;20384;-68
2021/03/26 05:40:47;;;;;;;31.17;22.15;;;8.10;78.30;;;;;;5114278;28;20408;-68
2021/03/26 05:43:31;;;;;;;25.73;20.30;;;8.10;78.30;;;;;;5114720;28;20461;-68
2021/03/26 05:46:06;;;;;;;31.27;22.13;;;8.10;78.70;;;;;;5113962;28;20047;-68
2021/03/26 05:48:39;;;;;;;26.83;21.50;;;8.20;78.80;;;;;;5114905;28;20321;-68
2021/03/26 05:51:34;;;;;;;33.57;23.10;;;8.20;78.80;;;;;;5114457;28;20309;-68
2021/03/26 05:54:12;;;;;;;30.47;22.30;;;8.20;79.00;;;;;;5114508;28;20328;-68
2021/03/26 05:56:53;;;;;;;29.27;22.57;;;8.20;79.10;;;;;;5114189;28;20351;-68
2021/03/26 05:59:39;;;;;;;29.63;22.95;;;8.20;79.10;;;;;;5114465;28;20373;-68
2021/03/26 06:02:35;;;;;;;27.47;21.33;;;8.20;79.10;;;;;;5114379;28;20212;-68
2021/03/26 06:05:30;;;;;;;26.40;20.50;;;8.20;78.90;;;;;;5113980;28;20766;-68
2021/03/26 06:08:53;;;;;;;27.57;20.23;;;8.20;79.10;;;;;;5074192;28;20293;-68
2021/03/26 06:11:48;;;;;;;26.88;22.45;;;8.30;79.10;;;;;;5057972;28;20410;-68
2021/03/26 06:14:24;;;;;;;26.90;20.33;;;8.40;79.00;;;;;;5066098;28;20043;-68
2021/03/26 06:17:24;;;;;;;29.77;22.87;;;8.40;78.90;;;;;;5113656;28;20286;-68
2021/03/26 06:20:31;;;;;;;30.77;22.60;;;8.40;79.20;;;;;;5113232;28;20297;-68
2021/03/26 06:23:07;;;;;;;32.03;22.47;;;8.50;79.50;;;;;;5113938;28;20306;-68
2021/03/26 06:25:44;;;;;;;28.23;22.70;;;8.50;79.50;;;;;;5113334;28;20296;-68
2021/03/26 06:28:18;;;;;;;29.30;23.30;;;8.50;79.60;;;;;;5113665;28;20385;-68
2021/03/26 06:31:17;;;;;;;30.60;22.87;;;8.50;80.00;;;;;;5113911;28;20377;-68
2021/03/26 06:34:04;;;;;;;35.67;24.03;;;8.50;81.00;;;;;;5113360;28;20398;-68
2021/03/26 06:37:09;;;;;;;30.97;23.23;;;8.50;81.00;;;;;;5114239;28;20291;-68
2021/03/26 06:40:01;;;;;;;30.10;22.63;;;8.50;81.70;;;;;;5113317;28;20387;-68
2021/03/26 06:42:46;;;;;;;37.42;25.55;;;8.50;81.70;;;;;;5113220;28;20344;-68
2021/03/26 06:45:33;;;;;;;29.87;23.53;;;8.40;83.00;;;;;;5095443;28;20059;-68
2021/03/26 06:48:21;;;;;;;32.73;24.47;;;8.40;83.30;;;;;;5112851;28;20661;-68
2021/03/26 06:51:22;;;;;;;34.90;27.07;;;8.30;84.00;;;;;;5113150;28;20290;-68
2021/03/26 06:54:16;;;;;;;33.65;24.73;;;8.30;84.70;;;;;;5112870;28;20332;-68
2021/03/26 06:57:03;;;;;;;35.23;25.43;;;8.30;84.80;;;;;;5112685;28;20052;-68
2021/03/26 07:00:03;;;;;;;35.73;26.27;;;8.20;85.60;;;;;;5113226;28;20289;-68
2021/03/26 07:03:24;;;;;;;38.37;26.57;;;8.20;86.80;;;;;;5112941;28;20372;-69
2021/03/26 07:05:53;;;;;;;34.28;27.13;;;8.20;86.80;;;;;;5112630;28;20827;-68
2021/03/26 07:08:43;;;;;;;35.40;25.80;;;8.20;86.30;;;;;;5113022;28;20488;-69
2021/03/26 07:11:24;;;;;;;40.30;26.93;;;8.20;86.70;;;;;;5112343;28;20804;-68
2021/03/26 07:14:11;;;;;;;34.20;26.37;;;8.30;86.80;;;;;;5112429;28;20308;-68
2021/03/26 07:17:20;;;;;;;33.97;26.13;;;8.30;86.60;;;;;;5112307;28;20301;-68
2021/03/26 07:20:13;;;;;;;38.17;26.37;;;8.40;87.00;;;;;;5079137;28;20381;-69
2021/03/26 07:23:17;;;;;;;33.50;24.80;;;8.40;87.10;;;;;;5112890;28;20297;-68
2021/03/26 07:26:17;;;;;;;32.97;23.70;;;8.50;86.50;;;;;;5112706;28;20297;-68
2021/03/26 07:28:57;;;;;;;35.80;25.47;;;8.60;86.90;;;;;;5112756;28;20364;-68
2021/03/26 07:31:45;;;;;;;30.53;23.60;;;8.60;87.10;;;;;;5112283;28;20336;-68
2021/03/26 07:34:41;;;;;;;32.20;24.17;;;8.70;87.30;;;;;;5112838;28;20301;-68
2021/03/26 07:37:27;;;;;;;30.47;23.57;;;8.70;87.50;;;;;;5111266;28;20380;-67
2021/03/26 07:40:08;;;;;;;33.23;25.87;;;8.70;86.50;;;;;;5112097;28;20298;-68
2021/03/26 07:43:11;;;;;;;35.00;24.30;;;8.70;86.30;;;;;;5111774;28;20305;-68
2021/03/26 07:46:04;;;;;;;32.17;25.33;;;8.70;86.90;;;;;;5111613;28;20399;-68
2021/03/26 07:49:07;;;;;;;29.43;22.77;;;8.70;87.00;;;;;;5112414;28;20697;-68
2021/03/26 07:51:53;;;;;;;35.10;26.60;;;8.70;86.80;;;;;;5111598;28;20305;-68
2021/03/26 07:54:57;;;;;;;36.23;26.77;;;8.80;86.70;;;;;;5112358;28;20293;-67
2021/03/26 07:57:50;;;;;;;38.43;27.70;;;8.80;87.30;;;;;;5111664;28;20300;-67
2021/03/26 08:00:46;;;;;;;34.20;24.67;;;8.90;87.00;;;;;;5111621;28;20384;-67
2021/03/26 08:03:29;;;;;;;33.53;25.37;;;8.90;87.00;;;;;;5091549;28;20290;-68
2021/03/26 08:06:37;;;;;;;33.03;24.90;;;8.90;86.90;;;;;;5090817;28;20298;-68
2021/03/26 08:09:43;;;;;;;37.30;25.70;;;8.90;87.00;;;;;;5091447;28;20829;-67
2021/03/26 08:12:19;;;;;;;32.10;21.80;;;8.90;86.90;;;;;;5091341;28;20371;-68
2021/03/26 08:15:12;;;;;;;34.57;27.00;;;8.90;86.60;;;;;;5091208;28;20798;-67
2021/03/26 08:17:45;;;;;;;34.27;26.13;;;8.90;86.90;;;;;;5098060;28;20302;-67
2021/03/26 08:20:27;;;;;;;32.83;26.93;;;8.90;86.60;;;;;;5099787;28;20709;-68
2021/03/26 08:23:09;;;;;;;;;;;8.90;87.20;;;;;;5101386;28;20363;-68
2021/03/26 08:25:44;;;;;;;42.97;27.92;;;8.90;87.20;;;;;;5082681;28;20361;-68
2021/03/26 08:28:33;;;;;;;37.60;29.07;;;8.90;86.80;;;;;;5099743;28;20580;-68
2021/03/26 08:31:10;;;;;;;37.20;28.90;;;9.00;87.30;;;;;;5102047;28;20427;-69
2021/03/26 08:34:00;;;;;;;40.67;31.40;;;9.00;86.80;;;;;;5100790;28;20301;-68
2021/03/26 08:36:59;;;;;;;38.70;30.20;;;9.00;86.90;;;;;;5102358;28;20296;-69
2021/03/26 08:39:40;;;;;;;36.80;27.73;;;9.00;86.90;;;;;;5102182;28;20294;-69
2021/03/26 08:42:33;;;;;;;36.40;28.63;;;9.00;86.60;;;;;;5101101;28;20308;-69
2021/03/26 08:45:08;;;;;;;42.17;29.77;;;9.10;87.00;;;;;;5098671;28;20376;-69
2021/03/26 08:47:42;;;;;;;36.27;28.97;;;9.10;86.80;;;;;;5101325;28;20796;-69
2021/03/26 08:50:23;;;;;;;37.20;28.00;;;9.20;86.80;;;;;;5105935;28;20362;-69
2021/03/26 08:53:02;;;;;;;41.57;30.10;;;9.30;86.90;;;;;;5102497;28;20316;-69
2021/03/26 08:56:00;;;;;;;36.93;28.57;;;9.40;86.80;;;;;;5103823;28;20290;-68
2021/03/26 08:58:45;;;;;;;37.47;29.47;;;9.40;86.70;;;;;;5104201;28;20324;-69
2021/03/26 09:01:45;;;;;;;32.90;26.77;;;9.60;86.70;;;;;;5104775;28;20298;-70
2021/03/26 09:04:27;;;;;;;35.33;27.60;;;9.70;86.20;;;;;;5104836;28;20312;-69
2021/03/26 09:07:25;;;;;;;35.47;27.90;;;9.80;86.00;;;;;;5104283;28;20355;-69
2021/03/26 09:10:07;;;;;;;35.53;26.50;;;9.90;85.70;;;;;;5106858;28;20313;-69
2021/03/26 09:12:47;;;;;;;33.67;27.83;;;10.00;86.10;;;;;;5115082;28;20341;-69
2021/03/26 09:15:50;;;;;;;32.37;25.37;;;10.10;85.20;;;;;;5115410;28;20092;-69
2021/03/26 09:18:37;;;;;;;38.17;28.43;;;10.20;84.50;;;;;;5115429;28;20327;-69
2021/03/26 09:21:27;;;;;;;32.33;26.70;;;10.30;84.50;;;;;;5115075;28;20305;-69
2021/03/26 09:24:21;;;;;;;34.83;25.30;;;10.40;84.20;;;;;;5114207;28;20293;-70
2021/03/26 09:27:29;;;;;;;31.10;23.17;;;10.60;83.90;;;;;;5104640;28;20297;-69
2021/03/26 09:30:16;;;;;;;37.20;27.13;;;10.80;83.20;;;;;;5114082;28;20302;-69
2021/03/26 09:32:56;;;;;;;30.60;23.10;;;11.00;82.60;;;;;;5114967;28;20313;-69
2021/03/26 09:35:37;;;;;;;34.57;24.60;;;11.10;82.50;;;;;;5115225;28;20392;-70
2021/03/26 09:38:21;;;;;;;31.95;23.75;;;11.20;82.00;;;;;;5114367;28;20047;-70
2021/03/26 09:41:07;;;;;;;28.60;22.57;;;11.40;81.60;;;;;;5113928;28;20527;-70
2021/03/26 09:43:54;;;;;;;30.53;24.20;;;11.40;80.70;;;;;;5114748;28;20122;-69
2021/03/26 09:46:51;;;;;;;30.07;23.33;;;11.50;80.20;;;;;;5115010;28;20052;-69
2021/03/26 09:49:39;;;;;;;32.70;24.23;;;11.60;79.50;;;;;;5114568;28;20104;-69
2021/03/26 09:52:27;;;;;;;24.30;20.07;;;11.70;79.10;;;;;;5095860;28;20054;-69
2021/03/26 09:55:04;;;;;;;27.57;22.83;;;11.80;80.20;;;;;;5114154;28;20059;-69
2021/03/26 09:57:43;;;;;;;28.90;22.43;;;11.90;78.80;;;;;;5114635;28;20047;-69
2021/03/26 10:00:12;;;;;;;27.63;20.67;;;12.10;78.80;;;;;;5113557;28;20072;-69
2021/03/26 10:02:56;;;;;;;26.43;21.03;;;12.30;78.20;;;;;;5114260;28;20040;-69
2021/03/26 10:05:53;;;;;;;26.57;18.57;;;12.30;76.80;;;;;;5114023;28;20044;-68
2021/03/26 10:11:07;;;;;;;26.83;19.95;;;12.40;77.00;;;;;;5114230;28;20168;-68
2021/03/26 10:13:41;;;;;;;26.10;19.60;;;12.60;76.60;;;;;;5113627;28;20067;-69
2021/03/26 10:16:10;;;;;;;26.97;18.80;;;12.70;76.40;;;;;;5113694;28;20553;-69
2021/03/26 10:18:35;;;;;;;24.97;18.77;;;12.80;75.80;;;;;;5113943;28;20062;-69
2021/03/26 10:21:01;;;;;;;24.63;18.50;;;12.90;75.00;;;;;;5113370;28;20047;-69
2021/03/26 10:23:34;;;;;;;24.93;19.27;;;12.90;75.00;;;;;;5114144;28;20054;-69
2021/03/26 10:26:09;;;;;;;27.87;18.97;;;13.00;74.00;;;;;;5113060;28;20075;-69
2021/03/26 10:28:44;;;;;;;23.53;18.60;;;13.10;73.40;;;;;;5113666;28;20073;-68
2021/03/26 10:31:27;;;;;;;23.13;17.77;;;13.10;73.20;;;;;;5113565;28;20047;-68
2021/03/26 10:33:58;;;;;;;25.53;18.00;;;13.10;72.40;;;;;;5113096;28;20060;-68
2021/03/26 10:36:44;;;;;;;26.10;18.15;;;13.20;72.50;;;;;;5114176;28;20448;-67
2021/03/26 10:39:15;;;;;;;26.27;17.33;;;13.30;72.20;;;;;;5113692;28;20113;-68
2021/03/26 10:41:47;;;;;;;23.73;16.55;;;13.40;70.90;;;;;;5112656;28;20055;-68
2021/03/26 10:44:22;;;;;;;22.15;15.95;;;13.60;70.10;;;;;;5113648;28;20124;-69
2021/03/26 10:47:07;;;;;;;21.97;16.20;;;13.60;69.70;;;;;;5113274;28;20048;-68
2021/03/26 10:49:40;;;;;;;18.13;15.40;;;13.70;68.80;;;;;;5113518;28;20047;-68
2021/03/26 10:52:13;;;;;;;18.67;13.70;;;13.80;69.20;;;;;;5112983;28;20059;-68
2021/03/26 10:54:50;;;;;;;18.47;12.93;;;13.90;68.10;;;;;;5112969;28;20079;-68
2021/03/26 10:57:29;;;;;;;20.83;14.10;;;13.90;67.00;;;;;;5113612;28;20069;-68
2021/03/26 10:59:55;;;;;;;17.37;12.40;;;14.00;66.90;;;;;;5112751;28;20067;-69
2021/03/26 11:02:39;;;;;;;17.03;14.50;;;14.00;66.10;;;;;;5112908;28;20144;-69
2021/03/26 11:05:39;;;;;;;18.13;14.47;;;14.10;65.60;;;;;;5112870;28;20055;-68
2021/03/26 11:08:04;;;;;;;18.73;12.53;;;14.20;65.20;;;;;;5094416;28;20059;-68
2021/03/26 11:10:44;;;;;;;24.10;15.83;;;14.30;65.20;;;;;;5112772;28;20093;-67
2021/03/26 11:13:39;;;;;;;19.43;13.40;;;14.40;64.10;;;;;;5112458;28;20055;-69
2021/03/26 11:16:29;;;;;;;26.10;15.70;;;14.60;62.70;;;;;;5075470;28;20050;-68
2021/03/26 11:19:11;;;;;;;18.90;11.57;;;14.60;61.60;;;;;;5112197;28;20050;-67
2021/03/26 11:21:46;;;;;;;16.90;10.68;;;14.80;62.60;;;;;;5112996;28;20047;-68
2021/03/26 11:24:13;;;;;;;15.47;10.97;;;15.00;62.00;;;;;;5112637;28;20139;-68
2021/03/26 11:27:00;;;;;;;16.50;11.40;;;15.20;62.10;;;;;;5112353;28;20101;-68
2021/03/26 11:29:32;;;;;;;20.30;12.60;;;15.20;58.30;;;;;;5112122;28;20581;-68
2021/03/26 11:32:07;;;;;;;19.50;10.20;;;15.10;58.70;;;;;;5112349;28;20055;-69
2021/03/26 11:34:56;;;;;;;15.43;9.43;;;14.80;58.50;;;;;;5112183;28;20492;-68
2021/03/26 11:37:52;;;;;;;17.07;11.37;;;14.60;59.20;;;;;;5111920;28;20417;-68
2021/03/26 11:40:42;;;;;;;15.93;10.80;;;14.50;57.90;;;;;;5112512;28;20567;-68
2021/03/26 11:43:25;;;;;;;30.57;24.33;;;14.60;57.60;;;;;;5112530;28;20083;-67
2021/03/26 11:46:05;;;;;;;17.33;10.90;;;14.80;58.50;;;;;;5111889;28;20423;-67
2021/03/26 11:48:58;;;;;;;14.73;9.90;;;14.90;57.20;;;;;;5112332;28;20043;-68
2021/03/26 11:51:27;;;;;;;14.87;8.87;;;14.80;56.70;;;;;;5112039;28;20427;-67
2021/03/26 11:53:58;;;;;;;14.93;11.57;;;14.80;58.00;;;;;;5111331;28;20502;-69
2021/03/26 11:56:46;;;;;;;14.63;10.50;;;14.90;57.80;;;;;;5113021;28;20055;-68
2021/03/26 11:59:44;;;;;;;17.27;11.00;;;14.90;57.70;;;;;;5111124;28;20048;-68
2021/03/26 12:02:23;;;;;;;17.27;10.83;;;15.10;57.10;;;;;;5111866;28;20044;-68
2021/03/26 12:05:17;;;;;;;18.37;13.80;;;15.20;57.30;;;;;;5111256;28;20452;-67
2021/03/26 12:07:46;;;;;;;15.20;10.53;;;15.20;55.90;;;;;;5112237;28;20112;-67
2021/03/26 12:10:27;;;;;;;17.30;10.40;;;15.00;57.00;;;;;;5111836;28;20068;-67
2021/03/26 12:13:11;;;;;;;16.40;12.23;;;15.00;57.00;;;;;;5110939;28;20051;-68
2021/03/26 12:15:44;;;;;;;20.93;10.73;;;14.90;56.90;;;;;;5111651;28;20047;-67
2021/03/26 12:18:23;;;;;;;14.20;9.77;;;14.90;57.80;;;;;;5112108;28;20089;-68
2021/03/26 12:20:50;;;;;;;14.93;9.27;;;14.80;57.00;;;;;;5111570;28;20055;-68
2021/03/26 12:23:51;;;;;;;20.10;15.30;;;14.80;57.30;;;;;;5111286;28;20130;-68
2021/03/26 12:26:25;;;;;;;17.63;9.77;;;14.80;56.50;;;;;;5072140;28;20401;-67
2021/03/26 12:28:54;;;;;;;14.50;9.70;;;14.90;57.80;;;;;;5111561;28;20305;-67
2021/03/26 12:31:47;;;;;;;14.87;11.30;;;15.10;56.40;;;;;;5111474;28;20417;-68
2021/03/26 12:34:29;;;;;;;26.17;10.07;;;15.00;55.20;;;;;;5110515;28;20107;-67
2021/03/26 12:37:09;;;;;;;14.57;10.20;;;14.90;56.10;;;;;;5110987;28;20054;-67
2021/03/26 12:39:38;;;;;;;15.20;11.13;;;14.80;56.00;;;;;;5111087;28;20104;-67
2021/03/26 12:42:32;;;;;;;16.27;10.10;;;14.80;56.80;;;;;;5108912;28;20101;-67
2021/03/26 12:45:16;;;;;;;16.17;10.70;;;14.80;56.40;;;;;;5111239;28;20043;-67
2021/03/26 12:47:50;;;;;;;12.40;8.07;;;15.00;55.30;;;;;;5110820;28;20047;-67
2021/03/26 12:50:35;;;;;;;15.27;9.13;;;15.00;56.40;;;;;;5111408;28;20523;-68
2021/03/26 12:53:13;;;;;;;17.43;11.57;;;15.10;55.40;;;;;;5111264;28;20055;-68
2021/03/26 12:56:19;;;;;;;15.93;12.63;;;15.10;55.20;;;;;;5110997;28;20047;-67
2021/03/26 12:59:00;;;;;;;14.67;10.23;;;15.20;55.80;;;;;;5110822;28;20058;-67
2021/03/26 13:01:46;;;;;;;11.68;7.07;;;15.20;54.20;;;;;;5110868;28;20051;-68
2021/03/26 13:04:16;;;;;;;11.00;7.13;;;15.20;54.70;;;;;;5111480;28;20134;-68
2021/03/26 13:06:48;;;;;;;10.00;6.43;;;15.30;54.70;;;;;;5111114;28;20054;-68
2021/03/26 13:09:27;;;;;;;9.90;5.90;;;15.40;54.50;;;;;;5110661;28;20130;-67
2021/03/26 13:11:58;;;;;;;10.47;6.20;;;15.50;52.70;;;;;;5110608;28;20055;-68
2021/03/26 13:14:51;;;;;;;9.82;5.22;;;15.50;53.60;;;;;;5111370;28;20557;-67
2021/03/26 13:17:21;;;;;;;6.70;4.67;;;15.40;52.50;;;;;;5111590;28;20059;-68
2021/03/26 13:19:47;;;;;;;9.30;5.57;;;15.20;53.80;;;;;;5110055;28;20043;-68
2021/03/26 13:22:24;;;;;;;11.43;7.00;;;15.10;53.30;;;;;;5110665;28;20039;-68
2021/03/26 13:25:11;;;;;;;15.67;11.43;;;15.10;53.10;;;;;;5110432;28;20043;-68
2021/03/26 13:27:42;;;;;;;17.87;14.23;;;15.00;53.10;;;;;;5110654;28;20509;-69
2021/03/26 13:30:10;;;;;;;11.02;7.22;;;15.00;53.70;;;;;;5110438;28;20043;-69
2021/03/26 13:32:41;;;;;;;9.50;6.50;;;15.00;54.00;;;;;;5110211;28;20059;-69
2021/03/26 13:35:18;;;;;;;13.18;6.03;;;15.00;54.00;;;;;;5113003;28;20051;-67
2021/03/26 13:37:47;;;;;;;12.73;9.07;;;15.00;54.00;;;;;;5114092;28;20048;-68
2021/03/26 13:40:16;;;;;;;11.80;7.17;;;15.00;54.30;;;;;;5114880;28;20559;-68
2021/03/26 13:42:52;;;;;;;8.43;5.20;;;14.90;54.00;;;;;;5100686;28;20063;-69